sensor_id;sensor_type;location;lat;lon;timestamp;temperature;humidity
15217;DHT22;7711;46.634;14.318;2024-02-28T00:00:08;5.20;17.80
15217;DHT22;7711;46.634;14.318;2024-02-28T00:02:36;5.20;53.90
15217;DHT22;7711;46.634;14.318;2024-02-28T00:05:05;5.20;81.90
15217;DHT22;7711;46.634;14.318;2024-02-28T00:07:32;5.30;90.10
15217;DHT22;7711;46.634;14.318;2024-02-28T00:10:00;5.30;99.90
15217;DHT22;7711;46.634;14.318;2024-02-28T00:12:27;5.30;99.90
15217;DHT22;7711;46.634;14.318;2024-02-28T00:14:54;5.30;99.90
15217;DHT22;7711;46.634;14.318;2024-02-28T00:17:21;5.30;99.90
15217;DHT22;7711;46.634;14.318;2024-02-28T00:19:48;5.30;99.90
15217;DHT22;7711;46.634;14.318;2024-02-28T00:22:16;5.30;99.90
15217;DHT22;7711;46.634;14.318;2024-02-28T00:24:43;5.30;99.90
15217;DHT22;7711;46.634;14.318;2024-02-28T00:27:10;5.20;99.90
15217;DHT22;7711;46.634;14.318;2024-02-28T00:29:37;5.20;99.90
15217;DHT22;7711;46.634;14.318;2024-02-28T00:32:04;5.20;99.90
15217;DHT22;7711;46.634;14.318;2024-02-28T00:34:31;5.20;99.90
15217;DHT22;7711;46.634;14.318;2024-02-28T00:36:58;5.20;1.00
15217;DHT22;7711;46.634;14.318;2024-02-28T00:39:26;5.20;1.00
15217;DHT22;7711;46.634;14.318;2024-02-28T00:41:53;5.20;99.90
15217;DHT22;7711;46.634;14.318;2024-02-28T00:44:20;5.20;99.90
15217;DHT22;7711;46.634;14.318;2024-02-28T00:46:47;5.20;99.90
15217;DHT22;7711;46.634;14.318;2024-02-28T00:49:14;5.20;99.90
15217;DHT22;7711;46.634;14.318;2024-02-28T00:51:41;5.20;99.90
15217;DHT22;7711;46.634;14.318;2024-02-28T00:54:08;5.20;99.90
15217;DHT22;7711;46.634;14.318;2024-02-28T00:56:36;5.20;99.90
15217;DHT22;7711;46.634;14.318;2024-02-28T00:59:03;5.20;99.90
15217;DHT22;7711;46.634;14.318;2024-02-28T01:01:32;5.20;99.90
15217;DHT22;7711;46.634;14.318;2024-02-28T01:03:58;5.20;99.90
15217;DHT22;7711;46.634;14.318;2024-02-28T01:06:25;5.20;99.90
15217;DHT22;7711;46.634;14.318;2024-02-28T01:08:52;5.20;99.90
15217;DHT22;7711;46.634;14.318;2024-02-28T01:11:19;5.20;99.90
15217;DHT22;7711;46.634;14.318;2024-02-28T01:13:48;5.20;1.00
15217;DHT22;7711;46.634;14.318;2024-02-28T01:16:15;5.20;1.00
15217;DHT22;7711;46.634;14.318;2024-02-28T01:18:42;5.20;1.00
15217;DHT22;7711;46.634;14.318;2024-02-28T01:21:09;5.20;1.00
15217;DHT22;7711;46.634;14.318;2024-02-28T01:23:36;5.20;1.00
15217;DHT22;7711;46.634;14.318;2024-02-28T01:26:03;5.20;1.00
15217;DHT22;7711;46.634;14.318;2024-02-28T01:28:31;5.20;1.00
15217;DHT22;7711;46.634;14.318;2024-02-28T01:31:00;5.20;1.00
15217;DHT22;7711;46.634;14.318;2024-02-28T01:33:27;5.20;99.90
15217;DHT22;7711;46.634;14.318;2024-02-28T01:35:54;5.10;99.90
15217;DHT22;7711;46.634;14.318;2024-02-28T01:38:21;5.20;99.90
15217;DHT22;7711;46.634;14.318;2024-02-28T01:40:48;5.10;99.90
15217;DHT22;7711;46.634;14.318;2024-02-28T01:43:15;5.10;99.90
15217;DHT22;7711;46.634;14.318;2024-02-28T01:45:43;5.10;99.90
15217;DHT22;7711;46.634;14.318;2024-02-28T01:48:12;5.20;99.90
15217;DHT22;7711;46.634;14.318;2024-02-28T01:50:39;5.20;99.90
15217;DHT22;7711;46.634;14.318;2024-02-28T01:53:09;5.20;99.90
15217;DHT22;7711;46.634;14.318;2024-02-28T01:55:37;5.20;99.90
15217;DHT22;7711;46.634;14.318;2024-02-28T01:58:06;5.20;99.90
15217;DHT22;7711;46.634;14.318;2024-02-28T02:00:33;5.10;99.90
15217;DHT22;7711;46.634;14.318;2024-02-28T02:03:00;5.20;99.90
15217;DHT22;7711;46.634;14.318;2024-02-28T02:05:30;5.10;99.90
15217;DHT22;7711;46.634;14.318;2024-02-28T02:07:57;5.10;99.90
15217;DHT22;7711;46.634;14.318;2024-02-28T02:10:25;5.10;99.90
15217;DHT22;7711;46.634;14.318;2024-02-28T02:12:52;5.10;99.90
15217;DHT22;7711;46.634;14.318;2024-02-28T02:15:19;5.10;99.90
15217;DHT22;7711;46.634;14.318;2024-02-28T02:17:46;5.20;99.90
15217;DHT22;7711;46.634;14.318;2024-02-28T02:20:14;5.10;99.90
15217;DHT22;7711;46.634;14.318;2024-02-28T02:22:43;5.20;99.90
15217;DHT22;7711;46.634;14.318;2024-02-28T02:25:10;5.20;99.90
15217;DHT22;7711;46.634;14.318;2024-02-28T02:27:37;5.20;99.90
15217;DHT22;7711;46.634;14.318;2024-02-28T02:30:05;5.20;99.90
15217;DHT22;7711;46.634;14.318;2024-02-28T02:32:32;5.20;99.90
15217;DHT22;7711;46.634;14.318;2024-02-28T02:34:59;5.20;99.90
15217;DHT22;7711;46.634;14.318;2024-02-28T02:37:26;5.20;99.90
15217;DHT22;7711;46.634;14.318;2024-02-28T02:39:54;5.20;99.90
15217;DHT22;7711;46.634;14.318;2024-02-28T02:42:21;5.10;99.90
15217;DHT22;7711;46.634;14.318;2024-02-28T02:44:48;5.10;99.90
15217;DHT22;7711;46.634;14.318;2024-02-28T02:47:15;5.10;99.90
15217;DHT22;7711;46.634;14.318;2024-02-28T02:49:42;5.10;1.00
15217;DHT22;7711;46.634;14.318;2024-02-28T02:52:09;5.10;1.00
15217;DHT22;7711;46.634;14.318;2024-02-28T02:54:36;5.10;1.00
15217;DHT22;7711;46.634;14.318;2024-02-28T02:57:05;5.10;1.00
15217;DHT22;7711;46.634;14.318;2024-02-28T02:59:32;5.10;1.00
15217;DHT22;7711;46.634;14.318;2024-02-28T03:01:58;5.10;99.90
15217;DHT22;7711;46.634;14.318;2024-02-28T03:04:25;5.10;99.90
15217;DHT22;7711;46.634;14.318;2024-02-28T03:06:52;5.10;99.90
15217;DHT22;7711;46.634;14.318;2024-02-28T03:09:19;5.10;99.90
15217;DHT22;7711;46.634;14.318;2024-02-28T03:11:46;5.10;99.90
15217;DHT22;7711;46.634;14.318;2024-02-28T03:14:14;5.10;99.90
15217;DHT22;7711;46.634;14.318;2024-02-28T03:16:41;5.10;99.90
15217;DHT22;7711;46.634;14.318;2024-02-28T03:19:09;5.10;99.90
15217;DHT22;7711;46.634;14.318;2024-02-28T03:21:36;5.20;3.90
15217;DHT22;7711;46.634;14.318;2024-02-28T03:24:03;5.10;99.90
15217;DHT22;7711;46.634;14.318;2024-02-28T03:26:30;5.10;99.90
15217;DHT22;7711;46.634;14.318;2024-02-28T03:28:57;5.10;99.90
15217;DHT22;7711;46.634;14.318;2024-02-28T03:31:26;5.00;99.90
15217;DHT22;7711;46.634;14.318;2024-02-28T03:33:52;5.00;99.90
15217;DHT22;7711;46.634;14.318;2024-02-28T03:36:19;4.90;99.90
15217;DHT22;7711;46.634;14.318;2024-02-28T03:38:46;4.90;1.00
15217;DHT22;7711;46.634;14.318;2024-02-28T03:41:13;4.90;1.00
15217;DHT22;7711;46.634;14.318;2024-02-28T03:43:40;4.90;1.00
15217;DHT22;7711;46.634;14.318;2024-02-28T03:46:07;4.90;1.00
15217;DHT22;7711;46.634;14.318;2024-02-28T03:48:36;4.80;1.00
15217;DHT22;7711;46.634;14.318;2024-02-28T03:51:03;4.80;1.00
15217;DHT22;7711;46.634;14.318;2024-02-28T03:53:31;4.80;1.00
15217;DHT22;7711;46.634;14.318;2024-02-28T03:55:58;4.70;1.00
15217;DHT22;7711;46.634;14.318;2024-02-28T03:58:25;4.70;1.00
15217;DHT22;7711;46.634;14.318;2024-02-28T04:00:51;4.70;1.00
15217;DHT22;7711;46.634;14.318;2024-02-28T04:03:17;4.70;1.00
15217;DHT22;7711;46.634;14.318;2024-02-28T04:05:46;4.70;1.00
15217;DHT22;7711;46.634;14.318;2024-02-28T04:08:13;4.70;1.00
15217;DHT22;7711;46.634;14.318;2024-02-28T04:10:40;4.60;1.00
15217;DHT22;7711;46.634;14.318;2024-02-28T04:13:07;4.60;1.00
15217;DHT22;7711;46.634;14.318;2024-02-28T04:15:33;4.60;1.00
15217;DHT22;7711;46.634;14.318;2024-02-28T04:18:01;4.60;1.00
15217;DHT22;7711;46.634;14.318;2024-02-28T04:20:28;4.60;1.00
15217;DHT22;7711;46.634;14.318;2024-02-28T04:22:56;4.60;1.00
15217;DHT22;7711;46.634;14.318;2024-02-28T04:25:23;4.50;1.00
15217;DHT22;7711;46.634;14.318;2024-02-28T04:27:50;4.50;1.00
15217;DHT22;7711;46.634;14.318;2024-02-28T04:30:17;4.50;1.00
15217;DHT22;7711;46.634;14.318;2024-02-28T04:32:44;4.50;1.00
15217;DHT22;7711;46.634;14.318;2024-02-28T04:35:10;4.50;1.00
15217;DHT22;7711;46.634;14.318;2024-02-28T04:37:41;4.50;1.00
15217;DHT22;7711;46.634;14.318;2024-02-28T04:40:10;4.50;1.00
15217;DHT22;7711;46.634;14.318;2024-02-28T04:42:37;4.40;1.00
15217;DHT22;7711;46.634;14.318;2024-02-28T04:45:05;4.50;1.00
15217;DHT22;7711;46.634;14.318;2024-02-28T04:47:33;4.30;1.00
15217;DHT22;7711;46.634;14.318;2024-02-28T04:49:59;4.30;1.00
15217;DHT22;7711;46.634;14.318;2024-02-28T04:52:26;4.30;1.00
15217;DHT22;7711;46.634;14.318;2024-02-28T04:54:53;4.20;1.00
15217;DHT22;7711;46.634;14.318;2024-02-28T04:57:22;4.10;1.00
15217;DHT22;7711;46.634;14.318;2024-02-28T04:59:49;4.00;1.00
15217;DHT22;7711;46.634;14.318;2024-02-28T05:02:16;4.00;1.00
15217;DHT22;7711;46.634;14.318;2024-02-28T05:04:43;4.00;43.70
15217;DHT22;7711;46.634;14.318;2024-02-28T05:07:10;4.10;96.70
15217;DHT22;7711;46.634;14.318;2024-02-28T05:09:36;4.10;99.90
15217;DHT22;7711;46.634;14.318;2024-02-28T05:12:04;4.00;99.90
15217;DHT22;7711;46.634;14.318;2024-02-28T05:14:32;3.90;71.10
15217;DHT22;7711;46.634;14.318;2024-02-28T05:16:59;3.80;99.90
15217;DHT22;7711;46.634;14.318;2024-02-28T05:19:26;3.80;99.90
15217;DHT22;7711;46.634;14.318;2024-02-28T05:21:53;3.80;99.90
15217;DHT22;7711;46.634;14.318;2024-02-28T05:24:20;3.80;99.90
15217;DHT22;7711;46.634;14.318;2024-02-28T05:26:46;3.70;99.90
15217;DHT22;7711;46.634;14.318;2024-02-28T05:29:13;3.90;99.90
15217;DHT22;7711;46.634;14.318;2024-02-28T05:31:42;3.90;99.90
15217;DHT22;7711;46.634;14.318;2024-02-28T05:34:08;3.90;99.90
15217;DHT22;7711;46.634;14.318;2024-02-28T05:36:36;4.00;99.90
15217;DHT22;7711;46.634;14.318;2024-02-28T05:39:03;4.00;99.90
15217;DHT22;7711;46.634;14.318;2024-02-28T05:41:31;4.00;99.90
15217;DHT22;7711;46.634;14.318;2024-02-28T05:43:58;4.00;99.90
15217;DHT22;7711;46.634;14.318;2024-02-28T05:46:25;4.10;99.90
15217;DHT22;7711;46.634;14.318;2024-02-28T05:48:53;4.10;99.90
15217;DHT22;7711;46.634;14.318;2024-02-28T05:51:20;4.10;99.90
15217;DHT22;7711;46.634;14.318;2024-02-28T05:53:48;4.00;99.90
15217;DHT22;7711;46.634;14.318;2024-02-28T05:56:15;4.00;99.90
15217;DHT22;7711;46.634;14.318;2024-02-28T05:58:46;4.00;99.90
15217;DHT22;7711;46.634;14.318;2024-02-28T06:01:15;4.00;99.90
15217;DHT22;7711;46.634;14.318;2024-02-28T06:03:42;4.20;99.90
15217;DHT22;7711;46.634;14.318;2024-02-28T06:06:13;4.20;99.90
15217;DHT22;7711;46.634;14.318;2024-02-28T06:08:40;4.20;99.90
15217;DHT22;7711;46.634;14.318;2024-02-28T06:11:07;4.30;99.90
15217;DHT22;7711;46.634;14.318;2024-02-28T06:13:35;4.30;99.90
15217;DHT22;7711;46.634;14.318;2024-02-28T06:16:03;4.40;99.90
15217;DHT22;7711;46.634;14.318;2024-02-28T06:18:30;4.50;99.90
15217;DHT22;7711;46.634;14.318;2024-02-28T06:20:59;4.50;99.90
15217;DHT22;7711;46.634;14.318;2024-02-28T06:23:28;4.50;1.00
15217;DHT22;7711;46.634;14.318;2024-02-28T06:25:55;4.50;1.00
15217;DHT22;7711;46.634;14.318;2024-02-28T06:28:22;4.50;1.00
15217;DHT22;7711;46.634;14.318;2024-02-28T06:30:49;4.60;1.00
15217;DHT22;7711;46.634;14.318;2024-02-28T06:33:16;4.70;1.00
15217;DHT22;7711;46.634;14.318;2024-02-28T06:35:44;4.80;1.00
15217;DHT22;7711;46.634;14.318;2024-02-28T06:38:11;4.80;1.00
15217;DHT22;7711;46.634;14.318;2024-02-28T06:40:39;4.90;1.00
15217;DHT22;7711;46.634;14.318;2024-02-28T06:43:07;4.90;1.00
15217;DHT22;7711;46.634;14.318;2024-02-28T06:45:34;4.90;99.90
15217;DHT22;7711;46.634;14.318;2024-02-28T06:48:00;5.00;99.90
15217;DHT22;7711;46.634;14.318;2024-02-28T06:50:27;5.10;99.90
15217;DHT22;7711;46.634;14.318;2024-02-28T06:52:54;5.20;99.90
15217;DHT22;7711;46.634;14.318;2024-02-28T06:55:21;5.40;99.90
15217;DHT22;7711;46.634;14.318;2024-02-28T06:57:49;5.50;99.90
15217;DHT22;7711;46.634;14.318;2024-02-28T07:00:17;5.60;99.90
15217;DHT22;7711;46.634;14.318;2024-02-28T07:02:45;5.70;9.50
15217;DHT22;7711;46.634;14.318;2024-02-28T07:05:12;5.80;1.00
15217;DHT22;7711;46.634;14.318;2024-02-28T07:07:39;5.80;1.00
15217;DHT22;7711;46.634;14.318;2024-02-28T07:10:06;5.80;1.00
15217;DHT22;7711;46.634;14.318;2024-02-28T07:12:33;5.80;1.00
15217;DHT22;7711;46.634;14.318;2024-02-28T07:15:02;5.90;1.00
15217;DHT22;7711;46.634;14.318;2024-02-28T07:17:29;5.90;99.90
15217;DHT22;7711;46.634;14.318;2024-02-28T07:19:56;5.70;99.90
15217;DHT22;7711;46.634;14.318;2024-02-28T07:22:23;5.80;99.90
15217;DHT22;7711;46.634;14.318;2024-02-28T07:24:50;5.80;99.90
15217;DHT22;7711;46.634;14.318;2024-02-28T07:27:17;5.70;99.90
15217;DHT22;7711;46.634;14.318;2024-02-28T07:29:43;5.60;99.90
15217;DHT22;7711;46.634;14.318;2024-02-28T07:32:12;5.70;99.90
15217;DHT22;7711;46.634;14.318;2024-02-28T07:34:39;5.80;1.00
15217;DHT22;7711;46.634;14.318;2024-02-28T07:37:06;5.90;99.90
15217;DHT22;7711;46.634;14.318;2024-02-28T07:39:33;6.00;99.90
15217;DHT22;7711;46.634;14.318;2024-02-28T07:42:00;6.20;99.90
15217;DHT22;7711;46.634;14.318;2024-02-28T07:44:27;6.20;5.50
15217;DHT22;7711;46.634;14.318;2024-02-28T07:46:56;6.40;99.90
15217;DHT22;7711;46.634;14.318;2024-02-28T07:49:25;6.50;1.00
15217;DHT22;7711;46.634;14.318;2024-02-28T07:51:52;6.40;1.00
15217;DHT22;7711;46.634;14.318;2024-02-28T07:54:19;6.50;1.00
15217;DHT22;7711;46.634;14.318;2024-02-28T07:56:46;6.50;1.00
15217;DHT22;7711;46.634;14.318;2024-02-28T07:59:13;6.50;1.00
15217;DHT22;7711;46.634;14.318;2024-02-28T08:01:39;6.50;1.00
15217;DHT22;7711;46.634;14.318;2024-02-28T08:04:06;6.60;1.00
15217;DHT22;7711;46.634;14.318;2024-02-28T08:06:35;6.40;1.00
15217;DHT22;7711;46.634;14.318;2024-02-28T08:09:02;6.30;1.00
15217;DHT22;7711;46.634;14.318;2024-02-28T08:11:30;6.40;1.00
15217;DHT22;7711;46.634;14.318;2024-02-28T08:13:56;6.20;1.00
15217;DHT22;7711;46.634;14.318;2024-02-28T08:16:23;6.10;1.00
15217;DHT22;7711;46.634;14.318;2024-02-28T08:18:50;6.20;1.00
15217;DHT22;7711;46.634;14.318;2024-02-28T08:21:17;6.10;1.00
15217;DHT22;7711;46.634;14.318;2024-02-28T08:23:47;6.20;99.90
15217;DHT22;7711;46.634;14.318;2024-02-28T08:26:14;6.30;46.90
15217;DHT22;7711;46.634;14.318;2024-02-28T08:28:41;6.40;26.70
15217;DHT22;7711;46.634;14.318;2024-02-28T08:31:08;6.50;1.00
15217;DHT22;7711;46.634;14.318;2024-02-28T08:33:35;6.50;1.00
15217;DHT22;7711;46.634;14.318;2024-02-28T08:36:02;6.60;1.00
15217;DHT22;7711;46.634;14.318;2024-02-28T08:38:29;6.60;1.00
15217;DHT22;7711;46.634;14.318;2024-02-28T08:40:57;6.50;1.00
15217;DHT22;7711;46.634;14.318;2024-02-28T08:43:24;6.70;1.00
15217;DHT22;7711;46.634;14.318;2024-02-28T08:45:51;6.80;1.00
15217;DHT22;7711;46.634;14.318;2024-02-28T08:48:19;6.70;1.00
15217;DHT22;7711;46.634;14.318;2024-02-28T08:50:46;6.70;1.00
15217;DHT22;7711;46.634;14.318;2024-02-28T08:53:13;6.90;1.00
15217;DHT22;7711;46.634;14.318;2024-02-28T08:55:40;7.20;1.00
15217;DHT22;7711;46.634;14.318;2024-02-28T08:58:08;7.20;1.00
15217;DHT22;7711;46.634;14.318;2024-02-28T09:00:36;7.10;1.00
15217;DHT22;7711;46.634;14.318;2024-02-28T09:03:04;7.20;1.00
15217;DHT22;7711;46.634;14.318;2024-02-28T09:05:31;7.20;1.00
15217;DHT22;7711;46.634;14.318;2024-02-28T09:07:58;7.20;1.00
15217;DHT22;7711;46.634;14.318;2024-02-28T09:10:25;7.30;1.00
15217;DHT22;7711;46.634;14.318;2024-02-28T09:12:52;7.40;1.00
15217;DHT22;7711;46.634;14.318;2024-02-28T09:15:20;7.80;1.00
15217;DHT22;7711;46.634;14.318;2024-02-28T09:17:47;7.90;1.00
15217;DHT22;7711;46.634;14.318;2024-02-28T09:20:14;8.10;1.00
15217;DHT22;7711;46.634;14.318;2024-02-28T09:22:41;8.10;99.90
15217;DHT22;7711;46.634;14.318;2024-02-28T09:25:08;8.10;99.90
15217;DHT22;7711;46.634;14.318;2024-02-28T09:27:36;8.20;99.90
15217;DHT22;7711;46.634;14.318;2024-02-28T09:30:04;8.30;99.90
15217;DHT22;7711;46.634;14.318;2024-02-28T09:32:32;8.30;99.90
15217;DHT22;7711;46.634;14.318;2024-02-28T09:34:59;8.20;99.90
15217;DHT22;7711;46.634;14.318;2024-02-28T09:37:26;8.30;99.90
15217;DHT22;7711;46.634;14.318;2024-02-28T09:39:54;8.50;99.90
15217;DHT22;7711;46.634;14.318;2024-02-28T09:42:21;8.30;99.90
15217;DHT22;7711;46.634;14.318;2024-02-28T09:44:49;8.50;99.90
15217;DHT22;7711;46.634;14.318;2024-02-28T09:47:16;8.70;99.90
15217;DHT22;7711;46.634;14.318;2024-02-28T09:49:45;8.80;99.90
15217;DHT22;7711;46.634;14.318;2024-02-28T09:52:17;8.60;99.90
15217;DHT22;7711;46.634;14.318;2024-02-28T09:54:44;8.70;99.90
15217;DHT22;7711;46.634;14.318;2024-02-28T09:57:11;9.00;99.90
15217;DHT22;7711;46.634;14.318;2024-02-28T09:59:39;8.80;99.90
15217;DHT22;7711;46.634;14.318;2024-02-28T10:02:10;9.00;99.90
15217;DHT22;7711;46.634;14.318;2024-02-28T10:04:37;9.00;99.90
15217;DHT22;7711;46.634;14.318;2024-02-28T10:07:13;9.20;99.90
15217;DHT22;7711;46.634;14.318;2024-02-28T10:09:40;9.40;99.90
15217;DHT22;7711;46.634;14.318;2024-02-28T10:12:07;9.60;99.90
15217;DHT22;7711;46.634;14.318;2024-02-28T10:14:34;9.00;99.90
15217;DHT22;7711;46.634;14.318;2024-02-28T10:17:01;8.70;99.90
15217;DHT22;7711;46.634;14.318;2024-02-28T10:19:28;8.90;99.90
15217;DHT22;7711;46.634;14.318;2024-02-28T10:21:55;8.90;99.90
15217;DHT22;7711;46.634;14.318;2024-02-28T10:24:25;8.80;99.90
15217;DHT22;7711;46.634;14.318;2024-02-28T10:26:52;8.90;99.90
15217;DHT22;7711;46.634;14.318;2024-02-28T10:29:22;9.00;99.90
15217;DHT22;7711;46.634;14.318;2024-02-28T10:31:49;9.10;99.90
15217;DHT22;7711;46.634;14.318;2024-02-28T10:34:16;9.20;99.90
15217;DHT22;7711;46.634;14.318;2024-02-28T10:36:44;9.60;99.90
15217;DHT22;7711;46.634;14.318;2024-02-28T10:39:12;9.70;99.90
15217;DHT22;7711;46.634;14.318;2024-02-28T10:41:42;10.00;99.90
15217;DHT22;7711;46.634;14.318;2024-02-28T10:44:09;10.30;99.90
15217;DHT22;7711;46.634;14.318;2024-02-28T10:46:38;10.30;99.90
15217;DHT22;7711;46.634;14.318;2024-02-28T10:49:05;10.50;99.90
15217;DHT22;7711;46.634;14.318;2024-02-28T10:51:35;10.60;99.90
15217;DHT22;7711;46.634;14.318;2024-02-28T10:54:09;10.20;99.90
15217;DHT22;7711;46.634;14.318;2024-02-28T10:56:37;10.50;99.90
15217;DHT22;7711;46.634;14.318;2024-02-28T10:59:07;11.10;99.90
15217;DHT22;7711;46.634;14.318;2024-02-28T11:01:35;11.40;99.90
15217;DHT22;7711;46.634;14.318;2024-02-28T11:04:03;11.50;99.90
15217;DHT22;7711;46.634;14.318;2024-02-28T11:06:31;10.90;99.90
15217;DHT22;7711;46.634;14.318;2024-02-28T11:08:59;10.80;99.90
15217;DHT22;7711;46.634;14.318;2024-02-28T11:11:30;10.40;99.90
15217;DHT22;7711;46.634;14.318;2024-02-28T11:13:58;10.60;99.90
15217;DHT22;7711;46.634;14.318;2024-02-28T11:16:29;10.90;99.90
15217;DHT22;7711;46.634;14.318;2024-02-28T11:18:56;11.00;99.90
15217;DHT22;7711;46.634;14.318;2024-02-28T11:21:24;11.50;99.90
15217;DHT22;7711;46.634;14.318;2024-02-28T11:23:52;11.60;99.90
15217;DHT22;7711;46.634;14.318;2024-02-28T11:26:19;11.30;99.90
15217;DHT22;7711;46.634;14.318;2024-02-28T11:28:47;11.20;99.90
15217;DHT22;7711;46.634;14.318;2024-02-28T11:31:14;11.50;99.90
15217;DHT22;7711;46.634;14.318;2024-02-28T11:33:44;11.80;99.90
15217;DHT22;7711;46.634;14.318;2024-02-28T11:36:11;11.20;99.90
15217;DHT22;7711;46.634;14.318;2024-02-28T11:38:39;11.70;99.90
15217;DHT22;7711;46.634;14.318;2024-02-28T11:41:07;11.90;99.90
15217;DHT22;7711;46.634;14.318;2024-02-28T11:43:34;12.30;99.90
15217;DHT22;7711;46.634;14.318;2024-02-28T11:46:01;12.60;99.90
15217;DHT22;7711;46.634;14.318;2024-02-28T11:48:34;12.20;99.90
15217;DHT22;7711;46.634;14.318;2024-02-28T11:51:02;11.80;99.90
15217;DHT22;7711;46.634;14.318;2024-02-28T11:53:29;11.50;99.90
15217;DHT22;7711;46.634;14.318;2024-02-28T11:55:56;11.20;99.90
15217;DHT22;7711;46.634;14.318;2024-02-28T11:58:23;11.00;99.90
15217;DHT22;7711;46.634;14.318;2024-02-28T12:00:51;10.90;99.90
15217;DHT22;7711;46.634;14.318;2024-02-28T12:03:21;10.70;99.90
15217;DHT22;7711;46.634;14.318;2024-02-28T12:05:49;10.90;99.90
15217;DHT22;7711;46.634;14.318;2024-02-28T12:08:19;10.80;99.90
15217;DHT22;7711;46.634;14.318;2024-02-28T12:10:46;10.90;99.90
15217;DHT22;7711;46.634;14.318;2024-02-28T12:13:16;11.20;99.90
15217;DHT22;7711;46.634;14.318;2024-02-28T12:15:43;11.30;99.90
15217;DHT22;7711;46.634;14.318;2024-02-28T12:18:11;11.40;99.90
15217;DHT22;7711;46.634;14.318;2024-02-28T12:20:38;11.90;99.90
15217;DHT22;7711;46.634;14.318;2024-02-28T12:23:05;11.90;99.90
15217;DHT22;7711;46.634;14.318;2024-02-28T12:25:35;12.10;99.90
15217;DHT22;7711;46.634;14.318;2024-02-28T12:28:02;12.70;99.90
15217;DHT22;7711;46.634;14.318;2024-02-28T12:30:31;13.10;99.90
15217;DHT22;7711;46.634;14.318;2024-02-28T12:32:58;13.50;99.90
15217;DHT22;7711;46.634;14.318;2024-02-28T12:35:25;13.10;99.90
15217;DHT22;7711;46.634;14.318;2024-02-28T12:37:52;12.90;99.90
15217;DHT22;7711;46.634;14.318;2024-02-28T12:40:19;12.30;99.90
15217;DHT22;7711;46.634;14.318;2024-02-28T12:42:48;12.10;99.90
15217;DHT22;7711;46.634;14.318;2024-02-28T12:45:15;12.50;99.90
15217;DHT22;7711;46.634;14.318;2024-02-28T12:47:42;12.60;99.90
15217;DHT22;7711;46.634;14.318;2024-02-28T12:50:09;12.50;99.90
15217;DHT22;7711;46.634;14.318;2024-02-28T12:52:36;12.60;99.90
15217;DHT22;7711;46.634;14.318;2024-02-28T12:55:04;13.00;99.90
15217;DHT22;7711;46.634;14.318;2024-02-28T12:57:31;13.50;99.90
15217;DHT22;7711;46.634;14.318;2024-02-28T12:59:59;13.60;99.90
15217;DHT22;7711;46.634;14.318;2024-02-28T13:02:26;14.00;99.90
15217;DHT22;7711;46.634;14.318;2024-02-28T13:04:53;13.90;99.90
15217;DHT22;7711;46.634;14.318;2024-02-28T13:07:20;14.40;99.90
15217;DHT22;7711;46.634;14.318;2024-02-28T13:09:48;14.50;99.90
15217;DHT22;7711;46.634;14.318;2024-02-28T13:12:15;14.00;99.90
15217;DHT22;7711;46.634;14.318;2024-02-28T13:14:43;14.50;99.90
15217;DHT22;7711;46.634;14.318;2024-02-28T13:17:11;13.70;99.90
15217;DHT22;7711;46.634;14.318;2024-02-28T13:19:38;13.00;99.90
15217;DHT22;7711;46.634;14.318;2024-02-28T13:22:05;12.70;99.90
15217;DHT22;7711;46.634;14.318;2024-02-28T13:24:32;12.80;99.90
15217;DHT22;7711;46.634;14.318;2024-02-28T13:27:01;12.90;99.90
15217;DHT22;7711;46.634;14.318;2024-02-28T13:29:28;13.30;99.90
15217;DHT22;7711;46.634;14.318;2024-02-28T13:31:56;13.90;99.90
15217;DHT22;7711;46.634;14.318;2024-02-28T13:34:25;14.30;99.90
15217;DHT22;7711;46.634;14.318;2024-02-28T13:36:52;14.20;99.90
15217;DHT22;7711;46.634;14.318;2024-02-28T13:39:19;14.40;99.90
15217;DHT22;7711;46.634;14.318;2024-02-28T13:41:46;13.90;99.90
15217;DHT22;7711;46.634;14.318;2024-02-28T13:44:16;13.50;99.90
15217;DHT22;7711;46.634;14.318;2024-02-28T13:46:44;13.40;99.90
15217;DHT22;7711;46.634;14.318;2024-02-28T13:49:12;13.50;99.90
15217;DHT22;7711;46.634;14.318;2024-02-28T13:51:42;13.70;99.90
15217;DHT22;7711;46.634;14.318;2024-02-28T13:54:09;13.20;99.90
15217;DHT22;7711;46.634;14.318;2024-02-28T13:56:36;13.40;99.90
15217;DHT22;7711;46.634;14.318;2024-02-28T13:59:03;13.70;99.90
15217;DHT22;7711;46.634;14.318;2024-02-28T14:01:32;13.80;99.90
15217;DHT22;7711;46.634;14.318;2024-02-28T14:03:59;13.50;99.90
15217;DHT22;7711;46.634;14.318;2024-02-28T14:06:26;13.20;99.90
15217;DHT22;7711;46.634;14.318;2024-02-28T14:08:54;13.40;99.90
15217;DHT22;7711;46.634;14.318;2024-02-28T14:11:22;13.20;99.90
15217;DHT22;7711;46.634;14.318;2024-02-28T14:13:49;13.00;99.90
15217;DHT22;7711;46.634;14.318;2024-02-28T14:16:16;13.00;99.90
15217;DHT22;7711;46.634;14.318;2024-02-28T14:18:45;13.50;99.90
15217;DHT22;7711;46.634;14.318;2024-02-28T14:21:12;13.40;99.90
15217;DHT22;7711;46.634;14.318;2024-02-28T14:23:39;13.40;99.90
15217;DHT22;7711;46.634;14.318;2024-02-28T14:26:08;13.50;99.90
15217;DHT22;7711;46.634;14.318;2024-02-28T14:28:35;13.60;99.90
15217;DHT22;7711;46.634;14.318;2024-02-28T14:31:02;13.70;99.90
15217;DHT22;7711;46.634;14.318;2024-02-28T14:33:29;13.50;99.90
15217;DHT22;7711;46.634;14.318;2024-02-28T14:35:58;13.40;99.90
15217;DHT22;7711;46.634;14.318;2024-02-28T14:38:25;13.40;99.90
15217;DHT22;7711;46.634;14.318;2024-02-28T14:40:52;13.20;99.90
15217;DHT22;7711;46.634;14.318;2024-02-28T14:43:21;13.20;99.90
15217;DHT22;7711;46.634;14.318;2024-02-28T14:45:48;13.20;99.90
15217;DHT22;7711;46.634;14.318;2024-02-28T14:48:15;13.10;99.90
15217;DHT22;7711;46.634;14.318;2024-02-28T14:50:42;12.90;99.90
15217;DHT22;7711;46.634;14.318;2024-02-28T14:53:08;12.90;99.90
15217;DHT22;7711;46.634;14.318;2024-02-28T14:55:36;12.80;99.90
15217;DHT22;7711;46.634;14.318;2024-02-28T14:58:03;12.70;99.90
15217;DHT22;7711;46.634;14.318;2024-02-28T15:00:31;12.50;99.90
15217;DHT22;7711;46.634;14.318;2024-02-28T15:02:58;12.40;99.90
15217;DHT22;7711;46.634;14.318;2024-02-28T15:05:25;12.30;99.90
15217;DHT22;7711;46.634;14.318;2024-02-28T15:07:52;12.40;99.90
15217;DHT22;7711;46.634;14.318;2024-02-28T15:10:20;12.30;99.90
15217;DHT22;7711;46.634;14.318;2024-02-28T15:12:47;12.30;99.90
15217;DHT22;7711;46.634;14.318;2024-02-28T15:15:14;12.20;99.90
15217;DHT22;7711;46.634;14.318;2024-02-28T15:17:42;12.20;99.90
15217;DHT22;7711;46.634;14.318;2024-02-28T15:20:10;12.10;99.90
15217;DHT22;7711;46.634;14.318;2024-02-28T15:22:37;12.00;99.90
15217;DHT22;7711;46.634;14.318;2024-02-28T15:25:06;11.80;99.90
15217;DHT22;7711;46.634;14.318;2024-02-28T15:27:34;11.80;99.90
15217;DHT22;7711;46.634;14.318;2024-02-28T15:30:01;11.90;99.90
15217;DHT22;7711;46.634;14.318;2024-02-28T15:32:30;11.80;99.90
15217;DHT22;7711;46.634;14.318;2024-02-28T15:34:59;11.70;99.90
15217;DHT22;7711;46.634;14.318;2024-02-28T15:37:26;11.60;99.90
15217;DHT22;7711;46.634;14.318;2024-02-28T15:39:53;11.50;99.90
15217;DHT22;7711;46.634;14.318;2024-02-28T15:42:20;11.50;99.90
15217;DHT22;7711;46.634;14.318;2024-02-28T15:44:47;11.30;99.90